Montville, Ohio
Current Conditions -  °F | °C
As of 3:53 PM on Sunday 23 Nov 2014 (Local Time) from KHZY Reporting Station
Few Clouds Few Clouds  
Wind Chill: 53°   Ceiling: Unl
Heat Index: 53°   Visibility: 10mi
Dew Point: 40°   Wind: 12mph
Humidity: 61%   Direction: 140°SE
Pressure: 29.83"   Gusts: NA
Location:  41.61°N, 81.05°W
Report Text: KHZY 232053Z AUTO 14010KT 10SM FEW055 12/04 A2983 RMK AO2 SLP104 T01170044 58025
Loading
Personal Weather Stations






























Interactive Weather Map New forecast layout! Learn more

10-Day Weather Forecast

Advertisements
Track Severe Weather on mobile